This is the latest recevied weather packets stored in our database for station/object WB5CFT. If no packets are shown the sender has not sent any weather packets the latest 1 day(s).
| Time | Temp. | Humidity | Pressure | Rain* | Wind** | Luminosity | Snow |
|---|---|---|---|---|---|---|---|
| 1778008883 | 23.89° C | 31% | 1011.4 hPa | 0 mm | 0.45 m/s, 272° | 75 W/m² | - |
| 1778008581 | 23.89° C | 30% | 1011.6 hPa | 0 mm | 1.79 m/s, 274° | 67 W/m² | - |
| 1778008279 | 23.89° C | 32% | 1011.4 hPa | 0 mm | 0.45 m/s, 259° | 61 W/m² | - |
| 1778007974 | 23.89° C | 33% | 1011.6 hPa | 0 mm | 0 m/s | 59 W/m² | - |
| 1778007669 | 23.89° C | 32% | 1011.6 hPa | 0 mm | 0 m/s | 58 W/m² | - |
| 1778007367 | 23.89° C | 32% | 1011.5 hPa | 0 mm | 0.45 m/s, 229° | 61 W/m² | - |
| 1778007063 | 23.89° C | 32% | 1011.6 hPa | 0 mm | 0 m/s | 78 W/m² | - |
| 1778006759 | 23.89° C | 33% | 1011.6 hPa | 0 mm | 0 m/s | 96 W/m² | - |
| 1778006456 | 23.89° C | 33% | 1011.6 hPa | 0 mm | 0 m/s | 90 W/m² | - |
| 1778006153 | 23.89° C | 33% | 1011.9 hPa | 0 mm | 0.45 m/s, 278° | 83 W/m² | - |
| 1778005851 | 24.44° C | 32% | 1011.7 hPa | 0 mm | 1.79 m/s, 255° | 96 W/m² | - |
| 1778005541 | 24.44° C | 33% | 1011.7 hPa | 0 mm | 0.89 m/s, 251° | 118 W/m² | - |
| 1778005238 | 24.44° C | 34% | 1012.1 hPa | 0 mm | 0.45 m/s, 237° | 119 W/m² | - |
| 1778004935 | 24.44° C | 34% | 1012.1 hPa | 0 mm | 0.45 m/s, 237° | 119 W/m² | - |
| 1778004632 | 24.44° C | 33% | 1012.1 hPa | 0 mm | 3.58 m/s, 223° | 124 W/m² | - |
| 1778004327 | 24.44° C | 34% | 1012.1 hPa | 0 mm | 0.45 m/s, 242° | 121 W/m² | - |
| 1778004026 | 24.44° C | 33% | 1012.1 hPa | 0 mm | 2.24 m/s, 223° | 132 W/m² | - |
| 1778003726 | 24.44° C | 34% | 1012.1 hPa | 0 mm | 0 m/s | 167 W/m² | - |
| 1778003423 | 24.44° C | 33% | 1012.2 hPa | 0 mm | 2.24 m/s, 271° | 177 W/m² | - |
| 1778003120 | 24.44° C | 34% | 1012.2 hPa | 0 mm | 1.79 m/s, 261° | 186 W/m² | - |
| 1778002816 | 24.44° C | 35% | 1012.1 hPa | 0 mm | 0.89 m/s, 235° | 203 W/m² | - |
| 1778002513 | 24.44° C | 35% | 1012.1 hPa | 0 mm | 0.89 m/s, 240° | 220 W/m² | - |
| 1778002210 | 23.89° C | 35% | 1012.1 hPa | 0 mm | 0.89 m/s, 241° | 181 W/m² | - |
| 1778001908 | 24.44° C | 34% | 1011.9 hPa | 0 mm | 0 m/s | 182 W/m² | - |
| 1778001609 | 24.44° C | 35% | 1011.8 hPa | 0 mm | 0.45 m/s, 214° | 216 W/m² | - |
* Rain latest hour (hover to see other rain measurements)
** Current wind speed in m/s (hover to see current wind gust speed)